createdAt,value
2022-09-09T00:03:25.088Z,0
2022-09-09T00:09:06.452Z,0
2022-09-09T00:14:46.369Z,0
2022-09-09T00:20:26.292Z,0
2022-09-09T00:26:05.993Z,0
2022-09-09T00:31:48.413Z,0
2022-09-09T00:37:28.558Z,0
2022-09-09T00:43:08.501Z,0
2022-09-09T00:48:49.200Z,0
2022-09-09T00:54:28.929Z,0
2022-09-09T01:00:08.819Z,0
2022-09-09T01:05:49.448Z,0
2022-09-09T01:11:29.173Z,0
2022-09-09T01:17:09.074Z,0
2022-09-09T01:22:48.959Z,0
2022-09-09T01:28:29.388Z,0
2022-09-09T01:34:10.322Z,0
2022-09-09T01:39:50.276Z,0
2022-09-09T01:45:30.757Z,0
2022-09-09T01:51:10.723Z,0
2022-09-09T01:56:50.558Z,0
2022-09-09T02:02:30.357Z,0
2022-09-09T02:08:10.597Z,0
2022-09-09T02:13:50.613Z,0
2022-09-09T02:19:31.208Z,0
2022-09-09T02:25:11.351Z,0
2022-09-09T02:30:52.132Z,0
2022-09-09T02:36:32.859Z,0
2022-09-09T02:42:13.342Z,0
2022-09-09T02:47:53.454Z,0
2022-09-09T02:53:34.012Z,15.6
2022-09-09T02:59:14.218Z,15.7
2022-09-09T03:04:54.472Z,15.8
2022-09-09T03:10:34.847Z,15.7
2022-09-09T03:16:15.520Z,15.5
2022-09-09T03:21:56.722Z,15.5
2022-09-09T03:27:37.006Z,15.5
2022-09-09T03:40:14.358Z,15.6
2022-09-09T03:47:29.404Z,15.7
2022-09-09T03:54:20.350Z,15.7
2022-09-09T04:00:01.143Z,15.5
2022-09-09T04:05:41.549Z,15.5
2022-09-09T04:12:08.936Z,15.8
2022-09-09T04:17:49.798Z,15.8
2022-09-09T04:24:17.606Z,15.9
2022-09-09T04:29:58.612Z,16.1
2022-09-09T04:35:38.771Z,16
2022-09-09T04:48:49.669Z,16.1
2022-09-09T04:55:40.529Z,16.3
2022-09-09T05:01:21.205Z,16.1
2022-09-09T05:07:02.027Z,16
2022-09-09T05:20:16.835Z,16.1
2022-09-09T05:25:58.107Z,16
2022-09-09T05:31:38.330Z,16
2022-09-09T05:37:19.292Z,16
2022-09-09T05:42:59.585Z,16
2022-09-09T05:49:26.980Z,16.3
2022-09-09T05:55:07.416Z,16.3
2022-09-09T06:00:47.911Z,16.4
2022-09-09T06:06:28.384Z,16.4
2022-09-09T06:12:08.792Z,16.6
2022-09-09T06:17:49.236Z,16.6
2022-09-09T06:24:39.835Z,16.8
2022-09-09T07:16:59.401Z,20.5
2022-09-09T07:30:10.396Z,19.3
2022-09-09T07:36:13.913Z,19.2
2022-09-09T07:42:17.665Z,19.2
2022-09-09T07:56:14.681Z,19.8
2022-09-09T08:09:25.913Z,21.5
2022-09-09T08:15:06.248Z,21.6
2022-09-09T08:20:46.285Z,20.8
2022-09-09T08:26:27.309Z,21.9
2022-09-09T08:32:12.818Z,22
2022-09-09T08:37:55.524Z,22.4
2022-09-09T08:43:35.378Z,21.5
2022-09-09T08:50:26.006Z,21
2022-09-09T08:56:54.392Z,22.5
2022-09-09T09:02:34.900Z,22.7
2022-09-09T09:09:25.648Z,23.7
2022-09-09T09:15:06.354Z,24
2022-09-09T09:20:46.808Z,25.3
2022-09-09T09:27:14.005Z,25.1
2022-09-09T09:32:57.649Z,25.1
2022-09-09T09:53:13.386Z,23.9
2022-09-09T09:59:23.288Z,22.9
2022-09-09T10:06:08.326Z,22.3
2022-09-09T10:11:48.929Z,21.6
2022-09-09T11:22:46.937Z,22.9
2022-09-09T11:28:28.306Z,24.5
2022-09-09T11:34:08.905Z,23.6
2022-09-09T11:39:49.271Z,23.4
2022-09-09T11:53:05.170Z,22.9
2022-09-09T11:58:45.398Z,22.5
2022-09-09T12:05:38.561Z,22.3
2022-09-09T12:12:28.747Z,21.4
2022-09-09T12:18:10.247Z,23.8
2022-09-09T12:31:21.431Z,24.4
2022-09-09T12:37:01.841Z,25.3
2022-09-09T12:42:42.072Z,25
2022-09-09T12:56:17.451Z,20.5
2022-09-09T13:03:07.973Z,19.6
2022-09-09T13:08:51.969Z,20.5
2022-09-09T13:15:42.984Z,22.8
2022-09-09T13:21:24.580Z,24
2022-09-09T13:27:30.568Z,24.5
2022-09-09T13:33:14.048Z,22.9
2022-09-09T13:38:53.876Z,21.6
2022-09-09T13:44:34.326Z,21.4
2022-09-09T13:50:14.415Z,21.2
2022-09-09T13:55:55.119Z,21.9
2022-09-09T14:01:35.158Z,22
2022-09-09T14:08:52.357Z,23.6
2022-09-09T14:15:21.189Z,23.2
2022-09-09T14:21:01.067Z,22.8
2022-09-09T14:28:29.941Z,22.2
2022-09-09T14:42:07.556Z,21
2022-09-09T14:49:21.150Z,20.9
2022-09-09T15:03:18.347Z,20.1
2022-09-09T15:08:58.812Z,19.9
2022-09-09T15:14:41.670Z,19.5
2022-09-09T15:27:57.860Z,19
2022-09-09T15:33:38.624Z,19.3
2022-09-09T15:39:23.401Z,19.3
2022-09-09T15:46:13.982Z,19.7
2022-09-09T16:06:55.596Z,20
2022-09-09T16:12:41.791Z,19.7
2022-09-09T16:33:22.458Z,19
2022-09-09T17:25:37.465Z,18.2
2022-09-09T17:31:18.094Z,17.8
2022-09-09T17:37:22.367Z,17.8
2022-09-09T17:43:02.459Z,17.8
2022-09-09T17:57:22.752Z,17
2022-09-09T18:03:03.387Z,16.7
2022-09-09T18:09:31.124Z,16.7
2022-09-09T18:15:11.402Z,16.5
2022-09-09T18:29:32.421Z,16.7
2022-09-09T18:35:13.177Z,16.5
2022-09-09T18:48:23.661Z,16.5
2022-09-09T18:54:04.184Z,16.4
2022-09-09T18:59:44.699Z,16.4
2022-09-09T19:12:58.021Z,16.4
2022-09-09T19:18:39.090Z,16.4
2022-09-09T19:39:19.318Z,16.2
2022-09-09T19:52:33.052Z,16.1
2022-09-09T19:59:23.622Z,16.1
2022-09-09T20:06:38.628Z,16.2
2022-09-09T20:12:19.088Z,16
2022-09-09T20:18:01.818Z,15.9
2022-09-09T20:23:48.322Z,16
2022-09-09T20:30:41.675Z,16.3
2022-09-09T20:36:25.086Z,16.4
2022-09-09T20:42:06.328Z,16.3
2022-09-09T20:47:46.526Z,16.3
2022-09-09T20:53:26.788Z,16.3
2022-09-09T21:06:37.877Z,16.1
2022-09-09T21:12:18.047Z,16
2022-09-09T21:17:58.257Z,16
2022-09-09T21:31:09.556Z,16.4
2022-09-09T21:37:13.392Z,16.3
2022-09-09T21:43:16.928Z,16.3
2022-09-09T21:55:04.692Z,16.2
2022-09-09T22:00:45.555Z,16.1
2022-09-09T22:06:26.147Z,16.1
2022-09-09T22:19:36.317Z,16
2022-09-09T22:37:02.100Z,15.6
2022-09-09T22:43:29.566Z,15.6
2022-09-09T22:50:20.198Z,15.9
2022-09-09T22:56:01.078Z,15.8
2022-09-09T23:01:41.348Z,15.8
2022-09-09T23:07:22.287Z,15.8
2022-09-09T23:13:02.387Z,15.7
2022-09-09T23:18:42.723Z,15.7
2022-09-09T23:24:23.068Z,15.7
2022-09-09T23:30:03.576Z,15.8
2022-09-09T23:35:43.932Z,15.8
2022-09-09T23:41:24.114Z,15.8
2022-09-09T23:47:04.455Z,15.8
2022-09-09T23:52:44.670Z,15.9
2022-09-09T23:58:25.781Z,15.9
